Delta Virtual Airport Information Service

Buenos Aires Ministro Pistarini International Airport

ICAO: SAEZ Country: Argentina
Latitude: -34.8222 Longitude: -58.5358
Latest Arrival : LAN1231 (1B) (KMIA-SAEZ) Latest Departure : LAN1244 (E) (SAEZ-SCEL)


WX CaptureLIVE
Data provided by noaa.gov | Fetched at 10:32:22

METAR : SAEZ 151400Z 20006KT CAVOK 09/03 Q1030 NOSIG

TAF : SAEZ 151100Z 1512/1612 23010KT CAVOK TX14/1518Z TN01/1610Z TEMPO 1515/1520 9999 SCT010 BKN030 BECMG 1600/1602 18005KT


Runway Data for SAEZ
Data provided by openaviationdata.com

Runway ID Mag Var Hdg Length Elevation Surface ILS Freq ILS Id ILS Slope
11 -6 108° 10801 ft 66 ft Asphalt 110.1 PC 3
17 -6 170° 10210 ft 66 ft Asphalt -- -- --
29 -6 288° 10801 ft 66 ft Asphalt -- -- --
35 -6 350° 10210 ft 66 ft Asphalt 108.7 EZ 3

Buenos Aires Ministro Pistarini International Airport, Argentina
Use only for reference purposes



Not for navigational purposes.